Time;durP1;ratioP1;P1;durP2;ratioP2;P2;SDS_P1;SDS_P2;PMS_P1;PMS_P2;Temp;Humidity;BMP_temperature;BMP_pressure;BME280_temperature;BME280_humidity;BME280_pressure;Samples;Min_cycle;Max_cycle;Signal;HPM_P1;HPM_P2
2024/03/12 00:02:13;;;;;;;5.13;4.05;;;;;;;7.31;100.00;100235.19;6199132;23;20419;-83
2024/03/12 00:04:41;;;;;;;5.35;4.13;;;;;;;7.29;100.00;100236.06;6202356;23;20592;-82
2024/03/12 00:07:16;;;;;;;6.95;4.80;;;;;;;7.33;100.00;100233.47;6201566;23;20008;-82
2024/03/12 00:09:46;;;;;;;4.97;4.07;;;;;;;7.33;100.00;100238.66;6200442;23;20016;-82
2024/03/12 00:12:13;;;;;;;10.57;4.93;;;;;;;7.31;100.00;100243.00;6226300;23;20020;-83
2024/03/12 00:14:46;;;;;;;8.05;4.07;;;;;;;7.28;100.00;100249.94;6199745;23;20031;-83
2024/03/12 00:17:14;;;;;;;5.28;4.25;;;;;;;7.29;100.00;100254.28;6200308;23;20047;-84
2024/03/12 00:19:41;;;;;;;7.93;4.38;;;;;;;7.33;100.00;100251.69;6225333;23;20019;-84
2024/03/12 00:22:12;;;;;;;5.95;3.63;;;;;;;7.38;100.00;100262.94;6227120;23;20038;-81
2024/03/12 00:24:40;;;;;;;5.82;4.28;;;;;;;7.45;100.00;100262.06;6226282;23;20027;-84
2024/03/12 00:27:09;;;;;;;6.07;3.75;;;;;;;7.50;100.00;100256.84;6201871;23;20082;-84
2024/03/12 00:29:36;;;;;;;7.10;4.97;;;;;;;7.58;100.00;100263.75;6226483;23;20042;-84
2024/03/12 00:32:03;;;;;;;5.50;4.03;;;;;;;7.67;100.00;100268.06;6225366;23;20016;-85
2024/03/12 00:34:30;;;;;;;6.25;4.60;;;;;;;7.76;100.00;100267.19;6200837;23;20422;-84
2024/03/12 00:37:01;;;;;;;5.38;3.97;;;;;;;7.84;100.00;100273.22;6249632;23;20030;-81
2024/03/12 00:39:28;;;;;;;5.88;4.18;;;;;;;7.89;100.00;100268.00;6225836;23;20016;-85
2024/03/12 00:41:56;;;;;;;6.40;4.05;;;;;;;7.93;100.00;100267.13;6225198;23;20023;-85
2024/03/12 00:44:23;;;;;;;5.47;4.35;;;;;;;7.95;100.00;100263.63;6200755;23;20016;-85
2024/03/12 00:46:51;;;;;;;6.10;4.63;;;;;;;8.00;100.00;100268.81;6200029;23;20020;-84
2024/03/12 00:49:26;;;;;;;5.45;4.22;;;;;;;8.00;100.00;100273.16;6200794;23;20039;-85
2024/03/12 00:51:54;;;;;;;7.32;5.05;;;;;;;7.99;100.00;100274.91;6224809;23;20099;-86
2024/03/12 00:54:21;;;;;;;5.85;4.72;;;;;;;7.99;100.00;100281.84;6225287;23;20020;-83
2024/03/12 00:56:50;;;;;;;5.82;4.32;;;;;;;8.01;100.00;100269.69;6200008;23;20020;-84
2024/03/12 00:59:18;;;;;;;7.22;4.78;;;;;;;8.01;100.00;100277.50;6227022;23;20326;-83
2024/03/12 01:01:48;;;;;;;6.25;4.63;;;;;;;8.00;100.00;100281.84;6225069;23;20034;-84
2024/03/12 01:04:19;;;;;;;6.07;4.15;;;;;;;8.02;100.00;100276.66;6224528;23;20016;-86
2024/03/12 01:06:49;;;;;;;5.15;4.65;;;;;;;8.04;100.00;100283.56;6200447;23;20020;-83
2024/03/12 01:09:28;;;;;;;7.57;4.15;;;;;;;8.07;100.00;100285.28;6206751;23;20087;-83
2024/03/12 01:11:55;;;;;;;9.15;6.03;;;;;;;8.15;100.00;100285.25;6200510;23;20433;-82
2024/03/12 01:14:25;;;;;;;9.10;4.65;;;;;;;8.14;100.00;100287.00;6228543;23;20020;-83
2024/03/12 01:16:54;;;;;;;6.63;5.13;;;;;;;8.21;100.00;100282.63;6201100;23;20054;-82
2024/03/12 01:19:21;;;;;;;6.10;4.55;;;;;;;8.22;100.00;100286.97;6201368;23;20012;-83
2024/03/12 01:21:51;;;;;;;6.85;5.53;;;;;;;8.21;100.00;100285.22;6248550;23;20016;-84
2024/03/12 01:24:18;;;;;;;6.93;5.30;;;;;;;8.19;100.00;100287.84;6201567;23;20027;-83
2024/03/12 01:26:48;;;;;;;6.22;4.38;;;;;;;8.19;100.00;100285.25;6225753;23;20076;-85
2024/03/12 01:29:22;;;;;;;6.70;4.57;;;;;;;8.24;100.00;100290.44;6201134;23;20822;-82
2024/03/12 01:31:52;;;;;;;8.10;4.60;;;;;;;8.23;100.00;100281.72;6206433;23;20026;-88
2024/03/12 01:34:24;;;;;;;5.90;4.32;;;;;;;8.26;100.00;100281.72;6206982;23;20031;-86
2024/03/12 01:36:54;;;;;;;7.40;4.90;;;;;;;8.27;100.00;100283.44;6207782;23;20027;-87
2024/03/12 01:39:26;;;;;;;6.53;4.53;;;;;;;8.22;100.00;100285.22;6231614;23;20331;-86
2024/03/12 01:41:56;;;;;;;6.03;4.43;;;;;;;8.19;100.00;100284.38;6207719;23;20027;-88
2024/03/12 01:44:23;;;;;;;7.55;4.70;;;;;;;8.14;100.00;100286.16;6206022;23;20046;-88
2024/03/12 01:46:55;;;;;;;8.00;5.25;;;;;;;8.05;100.00;100292.25;6230507;23;20020;-86
2024/03/12 01:49:25;;;;;;;7.72;5.45;;;;;;;8.06;100.00;100286.19;6205448;23;20016;-85
2024/03/12 01:51:53;;;;;;;4.22;3.80;;;;;;;8.02;100.00;100292.28;6205198;23;20030;-86
2024/03/12 01:54:20;;;;;;;6.57;4.80;;;;;;;8.01;100.00;100291.41;6229384;23;20067;-86
2024/03/12 01:56:48;;;;;;;6.22;4.90;;;;;;;8.01;100.00;100283.59;6229695;23;20027;-87
2024/03/12 01:59:25;;;;;;;5.53;4.68;;;;;;;8.03;100.00;100297.50;6206625;23;20031;-86
2024/03/12 02:02:01;;;;;;;8.00;6.15;;;;;;;8.03;100.00;100289.66;6231992;23;20051;-87
2024/03/12 02:04:28;;;;;;;7.30;4.78;;;;;;;8.03;100.00;100291.38;6229685;23;20115;-86
2024/03/12 02:06:55;;;;;;;9.38;5.05;;;;;;;7.99;100.00;100290.56;6202775;23;20024;-86
2024/03/12 02:09:23;;;;;;;7.82;4.60;;;;;;;7.97;100.00;100284.47;6205381;23;20004;-87
2024/03/12 02:11:53;;;;;;;7.07;5.20;;;;;;;7.97;100.00;100287.06;6206376;23;20040;-88
2024/03/12 02:14:26;;;;;;;8.07;4.75;;;;;;;7.95;100.00;100284.47;6205986;23;20039;-87
2024/03/12 02:16:54;;;;;;;8.60;4.70;;;;;;;8.00;100.00;100287.06;6205227;23;20385;-86
2024/03/12 02:19:20;;;;;;;6.60;4.60;;;;;;;7.99;100.00;100281.84;6229505;23;20016;-87
2024/03/12 02:21:50;;;;;;;6.18;4.80;;;;;;;7.97;100.00;100278.41;6254275;23;20047;-87
2024/03/12 02:24:20;;;;;;;6.97;5.25;;;;;;;7.95;100.00;100279.28;6231407;23;20016;-86
2024/03/12 02:26:47;;;;;;;6.90;5.70;;;;;;;7.97;100.00;100278.41;6231719;23;20345;-86
2024/03/12 02:29:17;;;;;;;9.68;5.78;;;;;;;7.98;100.00;100278.41;6254158;23;20184;-85
2024/03/12 02:31:50;;;;;;;6.22;4.85;;;;;;;7.95;100.00;100273.16;6205073;23;20031;-87
2024/03/12 02:34:23;;;;;;;7.55;5.15;;;;;;;7.91;100.00;100282.78;6205429;23;20030;-85
2024/03/12 02:36:57;;;;;;;7.95;5.18;;;;;;;7.88;100.00;100287.13;6230792;23;20016;-87
2024/03/12 02:39:25;;;;;;;5.55;4.30;;;;;;;7.85;100.00;100287.09;6206016;23;20051;-84
2024/03/12 02:41:52;;;;;;;6.93;5.22;;;;;;;7.78;100.00;100291.47;6229989;23;20119;-86
2024/03/12 02:44:23;;;;;;;8.07;5.10;;;;;;;7.77;100.00;100294.97;6231727;23;20022;-85
2024/03/12 02:46:54;;;;;;;8.18;4.78;;;;;;;7.73;100.00;100293.22;6207260;23;20027;-87
2024/03/12 02:49:23;;;;;;;8.98;5.10;;;;;;;7.75;100.00;100289.75;6230668;23;20019;-85
2024/03/12 02:51:51;;;;;;;6.55;4.55;;;;;;;7.78;100.00;100287.16;6231960;23;20070;-86
2024/03/12 02:54:20;;;;;;;4.82;3.95;;;;;;;7.75;100.00;100302.78;6206550;23;20101;-87
2024/03/12 02:56:51;;;;;;;5.63;4.20;;;;;;;7.73;100.00;100301.06;6231630;23;20047;-87
2024/03/12 02:59:20;;;;;;;9.80;4.47;;;;;;;7.67;100.00;100298.50;6231838;23;20020;-86
2024/03/12 03:01:47;;;;;;;6.80;4.88;;;;;;;7.69;100.00;100302.81;6205819;23;20389;-86
2024/03/12 03:04:14;;;;;;;9.45;5.20;;;;;;;7.63;100.00;100295.00;6204618;23;20020;-87
2024/03/12 03:06:46;;;;;;;5.68;4.53;;;;;;;7.62;100.00;100309.75;6205557;23;20020;-87
2024/03/12 03:09:13;;;;;;;7.15;5.22;;;;;;;7.62;100.00;100309.75;6230478;23;20043;-84
2024/03/12 03:11:41;;;;;;;5.93;4.20;;;;;;;7.62;100.00;100308.91;6205523;23;20042;-86
2024/03/12 03:14:08;;;;;;;6.15;4.47;;;;;;;7.64;100.00;100315.00;6210572;23;20016;-86
2024/03/12 03:16:37;;;;;;;5.88;4.93;;;;;;;7.68;100.00;100314.09;6235251;23;20016;-86
2024/03/12 03:19:05;;;;;;;6.57;4.68;;;;;;;7.64;100.00;100309.78;6231538;23;20058;-85
2024/03/12 03:21:34;;;;;;;8.48;4.68;;;;;;;7.66;100.00;100314.97;6207159;23;20030;-87
2024/03/12 03:24:04;;;;;;;4.95;4.45;;;;;;;7.65;100.00;100315.84;6210856;23;20020;-86
2024/03/12 03:26:32;;;;;;;6.70;5.05;;;;;;;7.69;100.00;100307.16;6210996;23;20004;-85
2024/03/12 03:29:04;;;;;;;8.40;4.68;;;;;;;7.73;100.00;100314.97;6211311;23;20026;-86
2024/03/12 03:31:33;;;;;;;6.25;5.00;;;;;;;7.73;100.00;100314.06;6209644;23;20070;-86
2024/03/12 03:34:21;;;;;;;6.88;4.70;;;;;;;7.74;100.00;100308.00;6203941;23;20028;-86
2024/03/12 03:36:48;;;;;;;8.80;4.50;;;;;;;7.66;100.00;100300.19;6255283;23;20086;-87
2024/03/12 03:39:15;;;;;;;6.40;5.25;;;;;;;7.72;100.00;100299.34;6203623;23;20028;-86
2024/03/12 03:41:43;;;;;;;6.30;4.60;;;;;;;7.78;100.00;100300.19;6230847;23;20059;-87
2024/03/12 03:44:10;;;;;;;5.60;4.32;;;;;;;7.83;100.00;100307.97;6204324;23;20020;-87
2024/03/12 03:46:37;;;;;;;5.25;4.10;;;;;;;7.83;100.00;100310.56;6202928;23;20020;-86
2024/03/12 03:49:05;;;;;;;8.13;4.90;;;;;;;7.77;100.00;100321.91;6229238;23;20020;-86
2024/03/12 03:51:31;;;;;;;9.23;4.95;;;;;;;7.78;100.00;100331.44;6203842;23;20020;-89
2024/03/12 03:54:00;;;;;;;5.47;4.57;;;;;;;7.72;100.00;100333.22;6254444;22;20264;-88
2024/03/12 03:56:32;;;;;;;5.93;4.53;;;;;;;7.70;100.00;100333.19;6230735;23;20045;-88
2024/03/12 03:59:01;;;;;;;8.23;4.65;;;;;;;7.62;100.00;100329.75;6205988;23;20600;-85
2024/03/12 04:01:29;;;;;;;9.10;4.65;;;;;;;7.58;100.00;100331.47;6204990;23;20020;-85
2024/03/12 04:03:56;;;;;;;6.45;4.22;;;;;;;7.58;100.00;100336.69;6203526;23;20019;-85
2024/03/12 04:06:24;;;;;;;7.20;4.70;;;;;;;7.56;100.00;100332.34;6256231;23;20071;-87
2024/03/12 04:08:53;;;;;;;6.78;4.13;;;;;;;7.52;100.00;100339.34;6228523;23;20013;-85
2024/03/12 04:11:21;;;;;;;4.80;3.67;;;;;;;7.50;100.00;100345.41;6203653;23;20066;-84
2024/03/12 04:13:54;;;;;;;9.63;4.82;;;;;;;7.42;100.00;100353.22;6229816;23;20004;-86
2024/03/12 04:16:23;;;;;;;7.00;3.80;;;;;;;7.50;100.00;100354.06;6255694;23;20205;-87
2024/03/12 04:18:50;;;;;;;5.90;3.88;;;;;;;7.58;100.00;100354.94;6227633;23;20012;-86
2024/03/12 04:21:23;;;;;;;5.47;4.38;;;;;;;7.57;100.00;100354.94;6229636;23;20111;-88
2024/03/12 04:23:50;;;;;;;5.60;4.05;;;;;;;7.59;100.00;100356.66;6230820;23;20016;-88
2024/03/12 04:26:19;;;;;;;6.05;4.40;;;;;;;7.54;100.00;100354.94;6255543;23;20024;-87
2024/03/12 04:28:47;;;;;;;7.55;4.97;;;;;;;7.50;100.00;100358.44;6204137;23;20016;-86
2024/03/12 04:31:20;;;;;;;5.35;4.53;;;;;;;7.47;100.00;100367.13;6230246;23;20237;-84
2024/03/12 04:33:47;;;;;;;8.38;4.47;;;;;;;7.49;100.00;100364.50;6206465;23;20432;-86
2024/03/12 04:36:19;;;;;;;5.55;4.88;;;;;;;7.56;100.00;100372.31;6202883;23;20012;-90
2024/03/12 04:38:46;;;;;;;21.88;5.68;;;;;;;7.58;100.00;100364.50;6205499;23;20115;-88
2024/03/12 04:41:13;;;;;;;8.20;5.00;;;;;;;7.62;100.00;100361.84;6228960;23;20020;-85
2024/03/12 04:43:44;;;;;;;6.18;4.80;;;;;;;7.62;100.00;100359.25;6232780;23;20030;-89
2024/03/12 04:46:10;;;;;;;5.53;4.07;;;;;;;7.69;100.00;100364.47;6234152;23;20102;-86
2024/03/12 04:48:39;;;;;;;5.05;4.20;;;;;;;7.68;100.00;100370.53;6212511;23;20050;-85
2024/03/12 04:51:09;;;;;;;5.45;4.57;;;;;;;7.66;100.00;100370.53;6212084;23;20023;-87
2024/03/12 04:53:37;;;;;;;7.93;4.47;;;;;;;7.62;100.00;100369.69;6238767;23;20017;-88
2024/03/12 04:56:07;;;;;;;7.30;4.18;;;;;;;7.58;100.00;100373.16;6211980;23;20020;-86
2024/03/12 04:58:37;;;;;;;6.55;4.78;;;;;;;7.62;100.00;100377.50;6237055;23;20020;-85
2024/03/12 05:01:06;;;;;;;5.85;4.15;;;;;;;7.65;100.00;100378.38;6187260;23;20024;-87
2024/03/12 05:03:39;;;;;;;6.90;4.68;;;;;;;7.69;100.00;100380.97;6212006;23;20042;-89
2024/03/12 05:06:09;;;;;;;9.23;4.18;;;;;;;7.71;100.00;100384.44;6212164;23;20024;-86
2024/03/12 05:08:38;;;;;;;6.00;3.63;;;;;;;7.74;100.00;100388.78;6236067;23;20020;-87
2024/03/12 05:11:06;;;;;;;4.05;3.70;;;;;;;7.70;100.00;100394.88;6235383;23;20030;-87
2024/03/12 05:13:33;;;;;;;8.38;4.38;;;;;;;7.68;100.00;100400.09;6211914;23;20020;-89
2024/03/12 05:16:10;;;;;;;4.93;3.67;;;;;;;7.70;100.00;100403.53;6207377;23;20016;-85
2024/03/12 05:24:33;;;;;;;5.72;4.22;;;;;;;7.70;100.00;100413.97;6212342;23;20023;-87
2024/03/12 05:27:10;;;;;;;6.25;3.92;;;;;;;7.62;100.00;100415.72;6206041;23;20092;-85
2024/03/12 05:29:43;;;;;;;6.15;4.00;;;;;;;7.62;100.00;100415.72;6216722;23;20000;-88
2024/03/12 05:32:29;;;;;;;6.70;4.22;;;;;;;7.66;100.00;100414.84;6206323;23;20020;-87
2024/03/12 05:35:05;;;;;;;6.57;4.60;;;;;;;7.72;100.00;100419.19;6229890;23;20481;-85
2024/03/12 05:37:51;;;;;;;;;;;;;;;7.73;100.00;100418.31;6158482;23;20028;-86
2024/03/12 05:40:18;;;;;;;9.57;4.45;;;;;;;7.76;100.00;100428.75;6209462;23;20094;-86
2024/03/12 05:48:18;;;;;;;6.65;4.95;;;;;;;7.68;100.00;100428.75;6211535;23;20011;-85
2024/03/12 05:50:45;;;;;;;7.38;4.63;;;;;;;7.69;100.00;100437.41;6229327;23;20016;-90
2024/03/12 05:53:19;;;;;;;6.90;5.05;;;;;;;7.61;100.00;100432.22;6257718;22;20338;-88
2024/03/12 05:55:46;;;;;;;8.55;5.07;;;;;;;7.61;100.00;100434.81;6232396;23;20016;-89
2024/03/12 05:58:15;;;;;;;7.93;4.45;;;;;;;7.60;100.00;100439.16;6228519;23;20043;-90
2024/03/12 06:00:45;;;;;;;6.50;4.00;;;;;;;7.64;100.00;100442.66;6222827;23;20020;-89
2024/03/12 06:03:15;;;;;;;8.27;4.90;;;;;;;7.67;100.00;100444.38;6253831;23;20023;-87
2024/03/12 06:05:43;;;;;;;6.90;5.50;;;;;;;7.69;100.00;100448.72;6206040;23;20020;-86
2024/03/12 06:08:14;;;;;;;8.32;5.90;;;;;;;7.70;100.00;100455.66;6231193;23;20073;-87
2024/03/12 06:10:43;;;;;;;6.60;5.25;;;;;;;7.74;100.00;100459.13;6206090;23;20458;-90
2024/03/12 06:13:12;;;;;;;8.20;5.30;;;;;;;7.73;100.00;100458.28;6232918;23;20462;-84
2024/03/12 06:15:39;;;;;;;5.78;4.60;;;;;;;7.76;100.00;100455.66;6234050;23;20016;-90
2024/03/12 06:18:13;;;;;;;6.55;5.50;;;;;;;7.78;100.00;100461.75;6234101;23;20020;-89
2024/03/12 06:20:45;;;;;;;7.57;5.53;;;;;;;7.83;100.00;100456.50;6231917;23;20024;-89
2024/03/12 06:23:18;;;;;;;9.63;5.53;;;;;;;7.85;100.00;100461.72;6207835;23;20028;-87
2024/03/12 06:25:54;;;;;;;6.60;5.50;;;;;;;7.89;100.00;100466.09;6258178;23;20020;-89
2024/03/12 06:28:21;;;;;;;7.45;4.72;;;;;;;7.88;100.00;100478.22;6230672;23;20016;-87
2024/03/12 06:30:49;;;;;;;6.85;5.15;;;;;;;7.88;100.00;100470.41;6231618;23;20507;-85
2024/03/12 06:33:18;;;;;;;6.50;4.93;;;;;;;7.95;100.00;100477.38;6208978;23;20001;-87
2024/03/12 06:35:55;;;;;;;12.30;5.72;;;;;;;8.00;100.00;100474.72;6206987;23;20019;-86
2024/03/12 06:38:23;;;;;;;6.25;5.25;;;;;;;8.06;100.00;100485.16;6207746;23;20154;-88
2024/03/12 06:40:52;;;;;;;7.97;5.40;;;;;;;8.06;100.00;100482.56;6257837;23;20004;-89
2024/03/12 06:43:19;;;;;;;7.25;5.25;;;;;;;8.09;100.00;100486.91;6230323;23;20085;-85
2024/03/12 06:45:58;;;;;;;9.77;5.85;;;;;;;8.14;100.00;100476.47;6233125;23;20020;-89
2024/03/12 06:48:28;;;;;;;7.32;5.45;;;;;;;8.16;100.00;100482.53;6230628;23;20092;-86
2024/03/12 06:51:03;;;;;;;9.02;6.45;;;;;;;8.14;100.00;100487.75;6230637;23;20035;-88
2024/03/12 06:53:31;;;;;;;11.32;6.63;;;;;;;8.16;100.00;100493.84;6207290;23;20023;-89
2024/03/12 06:55:58;;;;;;;8.68;5.82;;;;;;;8.19;100.00;100492.97;6205182;23;20020;-86
2024/03/12 06:58:29;;;;;;;9.35;7.03;;;;;;;8.19;100.00;100490.38;6233683;23;20040;-88
2024/03/12 07:01:02;;;;;;;10.30;6.93;;;;;;;8.21;100.00;100492.09;6211371;23;20023;-88
2024/03/12 07:03:31;;;;;;;12.95;7.32;;;;;;;8.22;100.00;100496.44;6255337;23;20016;-88
2024/03/12 07:06:05;;;;;;;11.70;8.57;;;;;;;8.20;100.00;100497.31;6208661;23;20437;-90
2024/03/12 07:08:41;;;;;;;13.73;8.75;;;;;;;8.22;100.00;100503.41;6207177;23;20032;-89
2024/03/12 07:11:11;;;;;;;17.05;9.80;;;;;;;8.23;100.00;100510.34;6207081;23;20018;-89
2024/03/12 07:13:39;;;;;;;10.85;7.65;;;;;;;8.23;100.00;100506.00;6205169;23;20028;-87
2024/03/12 07:16:09;;;;;;;13.43;8.45;;;;;;;8.28;100.00;100509.47;6231688;23;20026;-86
2024/03/12 07:18:36;;;;;;;14.80;8.40;;;;;;;8.25;100.00;100506.00;6206951;23;20031;-87
2024/03/12 07:21:03;;;;;;;17.55;8.90;;;;;;;8.27;100.00;100502.50;6203737;23;20016;-85
2024/03/12 07:23:30;;;;;;;13.07;8.70;;;;;;;8.33;100.00;100509.47;6256236;23;20016;-91
2024/03/12 07:25:58;;;;;;;15.93;10.50;;;;;;;8.37;100.00;100513.81;6229580;23;20023;-89
2024/03/12 07:28:26;;;;;;;14.68;9.45;;;;;;;8.39;100.00;100517.25;6229597;23;20093;-87
2024/03/12 07:30:54;;;;;;;14.20;9.25;;;;;;;8.46;100.00;100515.56;6227650;23;20020;-86
2024/03/12 07:33:21;;;;;;;27.60;10.30;;;;;;;8.51;100.00;100525.97;6202703;23;20059;-86
2024/03/12 07:35:48;;;;;;;19.25;10.30;;;;;;;8.55;100.00;100530.31;6201137;23;20092;-90
2024/03/12 07:38:18;;;;;;;13.80;9.10;;;;;;;8.64;100.00;100530.28;6204944;23;20031;-89
2024/03/12 07:40:44;;;;;;;18.13;10.48;;;;;;;8.62;100.00;100524.22;6229459;23;20016;-92
2024/03/12 07:43:12;;;;;;;16.60;10.15;;;;;;;8.65;100.00;100532.00;6230994;23;20017;-88
2024/03/12 07:45:46;;;;;;;16.23;10.45;;;;;;;8.65;100.00;100539.00;6206718;23;20016;-89
2024/03/12 07:48:15;;;;;;;17.60;11.02;;;;;;;8.64;100.00;100539.84;6232436;23;20093;-88
2024/03/12 07:50:43;;;;;;;18.60;11.80;;;;;;;8.61;100.00;100548.56;6256184;23;20027;-88
2024/03/12 07:53:10;;;;;;;20.10;12.20;;;;;;;8.60;100.00;100546.81;6230051;22;20020;-90
2024/03/12 07:55:37;;;;;;;22.58;13.55;;;;;;;8.60;100.00;100544.22;6230088;23;20020;-86
2024/03/12 07:58:04;;;;;;;25.65;15.20;;;;;;;8.62;100.00;100545.09;6228003;23;20024;-88
2024/03/12 08:00:32;;;;;;;24.20;14.38;;;;;;;8.66;100.00;100543.34;6202805;23;20047;-89
2024/03/12 08:02:59;;;;;;;30.15;16.55;;;;;;;8.60;100.00;100562.47;6229148;23;20047;-88
2024/03/12 08:05:28;;;;;;;31.40;17.98;;;;;;;8.58;100.00;100559.00;6202236;23;20023;-86
2024/03/12 08:07:55;;;;;;;29.08;17.08;;;;;;;8.64;100.00;100560.72;6228450;23;20368;-87
2024/03/12 08:10:22;;;;;;;24.63;14.40;;;;;;;8.72;100.00;100562.47;6227900;23;20016;-85
2024/03/12 08:12:49;;;;;;;24.83;15.00;;;;;;;8.70;100.00;100566.78;6203183;23;20022;-87
2024/03/12 08:15:17;;;;;;;27.67;16.25;;;;;;;8.69;100.00;100570.28;6228844;23;20020;-85
2024/03/12 08:17:44;;;;;;;33.80;17.48;;;;;;;8.73;100.00;100569.38;6227648;23;20043;-89
2024/03/12 08:20:17;;;;;;;29.05;15.18;;;;;;;8.77;100.00;100560.69;6232003;23;20016;-86
2024/03/12 08:22:53;;;;;;;24.60;15.07;;;;;;;8.72;100.00;100565.06;6234306;23;20036;-89
2024/03/12 08:28:04;;;;;;;23.67;14.13;;;;;;;8.77;100.00;100570.25;6256934;23;20020;-89
2024/03/12 08:30:32;;;;;;;27.63;15.43;;;;;;;8.86;100.00;100577.19;6208145;23;20438;-84
2024/03/12 08:32:59;;;;;;;29.98;16.98;;;;;;;8.87;100.00;100574.56;6205321;23;20020;-88
2024/03/12 08:35:26;;;;;;;29.38;16.48;;;;;;;8.86;100.00;100582.41;6229464;23;20020;-88
2024/03/12 08:37:53;;;;;;;33.13;16.40;;;;;;;8.85;100.00;100580.69;6230002;23;20030;-90
2024/03/12 08:40:22;;;;;;;28.75;16.08;;;;;;;8.81;100.00;100585.03;6205903;23;20068;-86
2024/03/12 08:42:50;;;;;;;30.85;16.02;;;;;;;8.78;100.00;100580.69;6231726;23;20008;-88
2024/03/12 08:45:17;;;;;;;31.10;16.23;;;;;;;8.79;100.00;100589.41;6231426;23;20083;-85
2024/03/12 08:47:47;;;;;;;28.67;16.27;;;;;;;8.72;100.00;100592.88;6206298;23;20024;-87
2024/03/12 08:50:17;;;;;;;28.63;16.50;;;;;;;8.73;100.00;100597.25;6237379;23;20139;-85
2024/03/12 08:52:46;;;;;;;26.17;14.68;;;;;;;8.74;100.00;100592.00;6210595;23;20016;-87
2024/03/12 08:55:18;;;;;;;29.67;17.40;;;;;;;8.77;100.00;100594.63;6235384;23;20272;-86
2024/03/12 08:57:55;;;;;;;24.98;15.85;;;;;;;8.87;100.00;100605.91;6213274;23;20016;-84
2024/03/12 09:00:33;;;;;;;31.30;16.30;;;;;;;8.95;100.00;100598.06;6262567;23;20024;-85
2024/03/12 09:03:01;;;;;;;27.67;17.67;;;;;;;8.94;100.00;100601.53;6214973;23;20024;-84
2024/03/12 09:05:34;;;;;;;28.13;16.25;;;;;;;8.93;100.00;100605.03;6239036;23;20030;-85
2024/03/12 09:08:05;;;;;;;34.15;17.30;;;;;;;8.89;100.00;100601.56;6213763;23;20008;-85
2024/03/12 09:10:41;;;;;;;26.80;17.27;;;;;;;8.81;100.00;100607.66;6239290;23;20020;-85
2024/03/12 09:13:20;;;;;;;25.88;16.25;;;;;;;8.85;100.00;100606.78;6238571;23;20012;-85
2024/03/12 09:15:51;;;;;;;29.83;16.88;;;;;;;8.81;100.00;100605.06;6263284;22;20016;-85
2024/03/12 09:18:27;;;;;;;26.73;15.50;;;;;;;8.85;100.00;100612.88;6262375;23;20051;-85
2024/03/12 09:21:04;;;;;;;26.55;16.08;;;;;;;9.04;100.00;100608.47;6213411;23;20054;-85
2024/03/12 09:23:33;;;;;;;27.35;16.33;;;;;;;9.30;100.00;100604.88;6237996;23;20283;-82
2024/03/12 09:26:05;;;;;;;26.63;15.27;;;;;;;9.70;100.00;100616.84;6237652;23;20030;-88
2024/03/12 09:28:37;;;;;;;27.35;15.60;;;;;;;10.08;100.00;100603.53;6262028;23;20326;-86
2024/03/12 09:31:08;;;;;;;25.38;15.25;;;;;;;10.34;100.00;100605.06;6213433;23;20008;-87
2024/03/12 09:33:39;;;;;;;22.85;14.52;;;;;;;10.67;100.00;100607.44;6236290;23;20072;-85
2024/03/12 09:36:09;;;;;;;26.27;15.18;;;;;;;10.77;100.00;100606.44;6214519;23;20043;-84
2024/03/12 09:38:47;;;;;;;24.38;15.20;;;;;;;10.80;100.00;100601.16;6265466;22;20004;-85
2024/03/12 09:41:18;;;;;;;25.98;14.43;;;;;;;10.72;100.00;100606.47;6265443;23;20071;-87
2024/03/12 09:43:51;;;;;;;23.13;13.98;;;;;;;10.87;100.00;100610.72;6240586;23;20036;-86
2024/03/12 09:46:23;;;;;;;22.00;14.45;;;;;;;10.93;100.00;100613.22;6217343;23;20084;-85
2024/03/12 09:48:53;;;;;;;22.23;14.27;;;;;;;11.11;99.58;100616.53;6238849;23;20497;-86
2024/03/12 09:51:26;;;;;;;19.95;13.30;;;;;;;11.33;97.52;100613.63;6262133;23;20346;-86
2024/03/12 09:53:53;;;;;;;21.88;13.13;;;;;;;11.36;96.96;100616.25;6236597;23;20020;-85
2024/03/12 09:56:20;;;;;;;21.52;13.25;;;;;;;11.15;96.43;100617.38;6211973;23;20020;-84
2024/03/12 09:58:48;;;;;;;20.75;12.85;;;;;;;11.40;96.23;100621.41;6210933;23;20024;-85
2024/03/12 10:01:16;;;;;;;21.65;13.80;;;;;;;11.94;91.26;100619.78;6212348;23;20020;-86
2024/03/12 10:03:46;;;;;;;19.52;12.88;;;;;;;11.78;91.07;100624.41;6236146;23;20016;-85
2024/03/12 10:06:13;;;;;;;21.60;13.60;;;;;;;11.83;90.16;100622.56;6231936;23;20024;-85
2024/03/12 10:08:44;;;;;;;19.05;12.48;;;;;;;11.55;90.02;100620.34;6230432;23;20038;-84
2024/03/12 10:11:19;;;;;;;22.10;12.80;;;;;;;11.31;92.17;100626.78;6231439;23;20039;-84
2024/03/12 10:13:58;;;;;;;20.65;13.70;;;;;;;10.87;93.55;100642.13;6231084;23;20031;-85
2024/03/12 10:16:27;;;;;;;22.38;14.20;;;;;;;10.52;94.93;100639.84;6206227;23;20020;-84
2024/03/12 10:19:14;;;;;;;22.13;13.00;;;;;;;10.34;97.12;100639.09;6232297;23;20016;-85
2024/03/12 10:21:45;;;;;;;21.90;12.75;;;;;;;10.16;99.32;100642.72;6230934;23;20008;-87
2024/03/12 10:24:21;;;;;;;17.63;13.07;;;;;;;10.20;100.00;100644.41;6232878;23;20070;-86
2024/03/12 10:27:14;;;;;;;20.63;13.35;;;;;;;10.11;100.00;100649.72;6209197;23;20024;-85
2024/03/12 10:29:43;;;;;;;21.30;13.87;;;;;;;10.06;100.00;100657.63;6233538;23;20047;-84
2024/03/12 10:32:27;;;;;;;20.33;13.65;;;;;;;9.92;100.00;100654.19;6230001;23;20039;-85
2024/03/12 10:34:54;;;;;;;;;;;;;;;9.82;100.00;100650.78;6234516;23;20024;-86
2024/03/12 10:37:30;;;;;;;29.13;15.85;;;;;;;9.84;100.00;100648.16;6234468;23;19938;-85
2024/03/12 10:40:26;;;;;;;24.85;14.82;;;;;;;9.87;99.69;100651.63;6234763;23;20011;-85
2024/03/12 10:43:03;;;;;;;28.67;15.40;;;;;;;9.88;99.22;100662.94;6237797;23;20618;-84
2024/03/12 10:45:32;;;;;;;25.00;15.63;;;;;;;9.89;99.80;100664.69;6260420;23;20024;-87
2024/03/12 10:48:00;;;;;;;27.75;15.63;;;;;;;9.95;99.84;100662.03;6234648;23;20074;-86
2024/03/12 10:50:35;;;;;;;27.25;16.50;;;;;;;9.94;100.00;100666.38;6236454;23;20016;-86
2024/03/12 10:53:07;;;;;;;24.20;14.13;;;;;;;10.21;99.19;100664.47;6211744;22;20504;-86
2024/03/12 10:55:41;;;;;;;21.80;14.90;;;;;;;10.27;98.45;100669.66;6239296;23;20012;-83
2024/03/12 10:58:15;;;;;;;27.13;15.32;;;;;;;10.13;99.08;100665.41;6212923;23;20024;-85
2024/03/12 11:00:48;;;;;;;26.67;15.65;;;;;;;9.82;100.00;100670.84;6215640;23;20057;-85
2024/03/12 11:03:23;;;;;;;27.50;16.13;;;;;;;9.79;100.00;100676.06;6236344;23;20024;-85
2024/03/12 11:05:54;;;;;;;28.40;15.95;;;;;;;9.73;100.00;100667.38;6214229;23;20465;-86
2024/03/12 11:08:27;;;;;;;24.90;15.13;;;;;;;9.76;100.00;100676.97;6231196;23;20024;-85
2024/03/12 11:10:56;;;;;;;24.00;15.25;;;;;;;9.80;100.00;100675.19;6233863;23;20028;-87
2024/03/12 11:13:23;;;;;;;25.95;14.85;;;;;;;9.91;100.00;100681.25;6235317;23;20033;-84
2024/03/12 11:16:01;;;;;;;24.77;14.80;;;;;;;9.98;100.00;100676.84;6212534;23;20031;-85
2024/03/12 11:18:38;;;;;;;26.48;15.63;;;;;;;9.90;100.00;100684.75;6213192;23;20103;-85
2024/03/12 11:21:06;;;;;;;26.55;15.02;;;;;;;9.92;100.00;100682.97;6261869;23;20021;-86
2024/03/12 11:23:34;;;;;;;26.13;14.13;;;;;;;9.87;100.00;100683.00;6233548;23;20067;-85
2024/03/12 11:26:06;;;;;;;28.50;15.30;;;;;;;9.81;100.00;100680.41;6210395;23;20047;-86
2024/03/12 11:28:50;;;;;;;30.00;16.80;;;;;;;9.75;100.00;100685.66;6234590;23;20107;-84
2024/03/12 11:31:22;;;;;;;23.17;15.52;;;;;;;9.71;100.00;100682.22;6210445;23;20103;-84
2024/03/12 11:33:52;;;;;;;26.15;16.98;;;;;;;9.80;100.00;100683.91;6262333;23;20016;-86
2024/03/12 11:36:48;;;;;;;27.10;16.15;;;;;;;9.72;100.00;100686.56;6208099;23;20083;-86
2024/03/12 11:39:29;;;;;;;30.75;18.50;;;;;;;9.73;100.00;100687.44;6184571;23;20047;-85
2024/03/12 11:42:05;;;;;;;30.17;17.52;;;;;;;9.67;100.00;100688.31;6236745;23;20078;-85
2024/03/12 11:45:00;;;;;;;28.08;17.48;;;;;;;9.63;100.00;100681.38;6265078;23;20026;-84
2024/03/12 11:47:42;;;;;;;29.27;17.67;;;;;;;9.64;100.00;100679.66;6219418;23;20016;-85
2024/03/12 11:53:39;;;;;;;28.55;17.20;;;;;;;9.81;100.00;100685.66;6219060;23;20016;-86